createdAt,value
2019-03-13T00:02:05.928Z,68.83
2019-03-13T00:04:32.689Z,69.13
2019-03-13T00:06:59.419Z,69.28
2019-03-13T00:09:28.444Z,69.74
2019-03-13T00:11:55.285Z,71.04
2019-03-13T00:14:23.668Z,71.61
2019-03-13T00:16:50.428Z,71.85
2019-03-13T00:19:17.155Z,71.58
2019-03-13T00:21:44.433Z,71.58
2019-03-13T00:24:11.248Z,71.62
2019-03-13T00:26:38.169Z,70.90
2019-03-13T00:29:04.970Z,70.08
2019-03-13T00:31:31.690Z,70.25
2019-03-13T00:33:58.434Z,69.62
2019-03-13T00:36:25.140Z,69.29
2019-03-13T00:38:54.788Z,69.46
2019-03-13T00:41:21.505Z,69.16
2019-03-13T00:43:48.580Z,69.16
2019-03-13T00:46:15.415Z,69.63
2019-03-13T00:48:42.155Z,69.47
2019-03-13T00:51:09.208Z,69.68
2019-03-13T00:53:35.946Z,69.61
2019-03-13T00:56:02.645Z,69.61
2019-03-13T00:58:29.773Z,69.48
2019-03-13T01:01:04.758Z,69.55
2019-03-13T01:03:47.748Z,69.55
2019-03-13T01:06:18.732Z,69.13
2019-03-13T01:08:45.894Z,69.53
2019-03-13T01:11:12.710Z,69.71
2019-03-13T01:13:39.446Z,70.25
2019-03-13T01:16:06.303Z,70.25
2019-03-13T01:18:33.038Z,70.31
2019-03-13T01:20:59.767Z,70.33
2019-03-13T01:23:26.623Z,70.33
2019-03-13T01:25:53.407Z,70.69
2019-03-13T01:28:22.997Z,71.64
2019-03-13T01:31:07.894Z,71.57
2019-03-13T01:33:34.632Z,71.57
2019-03-13T01:36:02.600Z,71.04
2019-03-13T01:38:29.329Z,71.60
2019-03-13T01:40:56.066Z,71.44
2019-03-13T01:43:22.790Z,71.44
2019-03-13T01:45:49.545Z,71.91
2019-03-13T01:48:16.264Z,72.59
2019-03-13T01:50:43.352Z,71.68
2019-03-13T01:53:10.665Z,71.68
2019-03-13T01:55:37.880Z,72.03
2019-03-13T01:58:04.602Z,72.03
2019-03-13T02:00:31.352Z,71.81
2019-03-13T02:02:58.064Z,71.81
2019-03-13T02:05:27.620Z,71.34
2019-03-13T02:07:54.340Z,71.34
2019-03-13T02:10:21.082Z,71.33
2019-03-13T02:12:47.930Z,71.33
2019-03-13T02:15:17.086Z,71.13
2019-03-13T02:17:44.231Z,71.13
2019-03-13T02:20:10.955Z,70.59
2019-03-13T02:22:37.686Z,70.84
2019-03-13T02:25:05.185Z,70.84
2019-03-13T02:27:31.903Z,70.93
2019-03-13T02:29:58.890Z,70.81
2019-03-13T02:32:25.611Z,70.63
2019-03-13T02:34:52.528Z,70.24
2019-03-13T02:37:21.167Z,69.11
2019-03-13T02:39:47.875Z,69.17
2019-03-13T02:42:20.364Z,69.17
2019-03-13T02:44:47.077Z,68.54
2019-03-13T02:47:19.135Z,68.47
2019-03-13T02:49:45.506Z,68.12
2019-03-13T02:52:12.295Z,68.12
2019-03-13T02:54:39.053Z,68.09
2019-03-13T02:57:05.743Z,67.70
2019-03-13T02:59:32.836Z,67.52
2019-03-13T03:02:07.993Z,67.56
2019-03-13T03:04:34.718Z,67.59
2019-03-13T03:07:01.440Z,67.56
2019-03-13T03:09:28.152Z,67.33
2019-03-13T03:11:54.886Z,67.25
2019-03-13T03:14:21.633Z,67.05
2019-03-13T03:16:48.327Z,67.14
2019-03-13T03:19:15.410Z,67.41
2019-03-13T03:21:42.133Z,67.46
2019-03-13T03:24:08.863Z,67.31
2019-03-13T03:26:35.579Z,67.31
2019-03-13T03:29:02.302Z,67.47
2019-03-13T03:31:29.076Z,67.79
2019-03-13T03:34:04.953Z,67.81
2019-03-13T03:36:33.432Z,67.81
2019-03-13T03:39:00.182Z,67.50
2019-03-13T03:41:27.502Z,67.22
2019-03-13T03:43:54.634Z,67.62
2019-03-13T03:46:21.372Z,67.59
2019-03-13T03:48:48.087Z,67.93
2019-03-13T03:51:18.028Z,67.86
2019-03-13T03:53:44.757Z,67.74
2019-03-13T03:56:11.779Z,68.06
2019-03-13T03:58:38.508Z,67.78
2019-03-13T04:01:05.559Z,67.78
2019-03-13T04:03:32.297Z,68.01
2019-03-13T04:05:59.124Z,68.78
2019-03-13T04:08:25.853Z,68.78
2019-03-13T04:10:52.563Z,69.55
2019-03-13T04:13:19.951Z,69.55
2019-03-13T04:15:46.676Z,69.18
2019-03-13T04:18:13.382Z,69.15
2019-03-13T04:20:40.104Z,68.56
2019-03-13T04:23:06.909Z,68.69
2019-03-13T04:25:34.880Z,68.51
2019-03-13T04:28:01.799Z,68.56
2019-03-13T04:30:28.547Z,68.56
2019-03-13T04:32:55.394Z,68.69
2019-03-13T04:35:22.525Z,69.04
2019-03-13T04:37:49.246Z,69.04
2019-03-13T04:40:15.960Z,68.70
2019-03-13T04:42:42.729Z,68.18
2019-03-13T04:45:11.094Z,67.87
2019-03-13T04:47:37.802Z,67.80
2019-03-13T04:50:04.848Z,67.87
2019-03-13T04:52:31.542Z,67.87
2019-03-13T04:54:58.279Z,67.52
2019-03-13T04:57:24.964Z,68.88
2019-03-13T04:59:51.708Z,68.88
2019-03-13T05:02:18.401Z,68.46
2019-03-13T05:04:45.158Z,68.58
2019-03-13T05:07:11.929Z,69.00
2019-03-13T05:09:39.571Z,69.00
2019-03-13T05:12:06.280Z,68.54
2019-03-13T05:14:33.034Z,68.71
2019-03-13T05:16:59.740Z,68.87
2019-03-13T05:19:26.496Z,68.45
2019-03-13T05:21:53.169Z,68.33
2019-03-13T05:24:19.877Z,68.33
2019-03-13T05:26:46.607Z,67.77
2019-03-13T05:29:13.414Z,67.38
2019-03-13T05:31:40.127Z,67.38
2019-03-13T05:34:06.952Z,67.60
2019-03-13T05:36:33.703Z,66.93
2019-03-13T05:39:00.464Z,67.52
2019-03-13T05:41:27.199Z,67.30
2019-03-13T05:43:53.937Z,67.30
2019-03-13T05:46:20.992Z,66.80
2019-03-13T05:48:47.864Z,66.74
2019-03-13T05:51:14.631Z,66.55
2019-03-13T05:53:42.034Z,66.42
2019-03-13T05:56:08.756Z,66.92
2019-03-13T05:58:35.465Z,68.17
2019-03-13T06:01:02.567Z,68.47
2019-03-13T06:03:29.329Z,68.47
2019-03-13T06:05:58.461Z,68.06
2019-03-13T06:08:25.333Z,68.76
2019-03-13T06:10:52.453Z,68.66
2019-03-13T06:13:19.161Z,69.08
2019-03-13T06:15:45.884Z,69.03
2019-03-13T06:18:12.618Z,69.03
2019-03-13T06:20:39.380Z,69.59
2019-03-13T06:23:06.121Z,69.28
2019-03-13T06:25:32.995Z,68.51
2019-03-13T06:28:00.217Z,68.51
2019-03-13T06:30:27.336Z,68.00
2019-03-13T06:32:54.133Z,67.61
2019-03-13T06:35:23.553Z,67.61
2019-03-13T06:37:49.512Z,67.65
2019-03-13T06:40:16.224Z,67.09
2019-03-13T06:42:43.365Z,66.76
2019-03-13T06:45:10.398Z,65.36
2019-03-13T06:47:37.127Z,65.36
2019-03-13T06:50:07.820Z,66.03
2019-03-13T06:52:34.544Z,65.78
2019-03-13T06:55:01.253Z,65.78
2019-03-13T06:57:28.075Z,66.08
2019-03-13T07:00:29.278Z,65.69
2019-03-13T07:03:12.649Z,66.12
2019-03-13T07:05:59.052Z,66.02
2019-03-13T07:08:44.124Z,66.02
2019-03-13T07:11:30.502Z,65.59
2019-03-13T07:14:16.854Z,65.51
2019-03-13T07:16:58.614Z,65.51
2019-03-13T07:19:45.018Z,65.97
2019-03-13T07:22:43.502Z,66.07
2019-03-13T07:25:25.682Z,65.73
2019-03-13T07:28:20.398Z,65.48
2019-03-13T07:31:17.550Z,65.48
2019-03-13T07:34:18.520Z,65.11
2019-03-13T07:37:01.396Z,64.78
2019-03-13T07:39:35.797Z,64.56
2019-03-13T07:42:49.715Z,64.18
2019-03-13T07:45:36.073Z,63.89
2019-03-13T07:48:21.059Z,63.36
2019-03-13T07:50:53.411Z,63.62
2019-03-13T07:53:39.773Z,63.65
2019-03-13T07:56:21.896Z,63.65
2019-03-13T07:59:11.174Z,63.21
2019-03-13T08:01:47.265Z,62.36
2019-03-13T08:04:22.377Z,62.34
2019-03-13T08:07:04.375Z,63.32
2019-03-13T08:09:44.630Z,63.32
2019-03-13T08:12:34.205Z,63.79
2019-03-13T08:15:29.339Z,63.91
2019-03-13T08:18:02.508Z,64.52
2019-03-13T08:20:47.927Z,64.36
2019-03-13T08:23:33.017Z,64.70
2019-03-13T08:26:25.631Z,64.70
2019-03-13T08:29:14.592Z,65.48
2019-03-13T08:32:12.516Z,65.81
2019-03-13T08:34:47.899Z,65.28
2019-03-13T08:37:22.294Z,65.35
2019-03-13T08:40:11.537Z,65.37
2019-03-13T08:42:56.334Z,65.60
2019-03-13T08:45:55.037Z,66.15
2019-03-13T08:48:40.078Z,65.60
2019-03-13T08:51:35.480Z,65.60
2019-03-13T08:54:12.288Z,69.26
2019-03-13T08:56:56.743Z,69.15
2019-03-13T08:59:42.214Z,69.51
2019-03-13T09:02:22.675Z,70.20
2019-03-13T09:05:02.825Z,72.49
2019-03-13T09:07:59.165Z,75.09
2019-03-13T09:10:44.274Z,75.09
2019-03-13T09:13:16.903Z,76.60
2019-03-13T09:15:50.605Z,78.64
2019-03-13T09:18:23.397Z,77.48
2019-03-13T09:21:09.964Z,78.15
2019-03-13T09:24:00.211Z,78.15
2019-03-13T09:26:49.203Z,75.98
2019-03-13T09:29:35.056Z,76.08
2019-03-13T09:32:21.489Z,76.22
2019-03-13T09:34:57.609Z,73.15
2019-03-13T09:37:43.963Z,70.81
2019-03-13T09:40:32.204Z,70.81
2019-03-13T09:43:04.197Z,70.56
2019-03-13T09:45:53.085Z,70.56
2019-03-13T09:48:38.374Z,69.94
2019-03-13T09:51:14.614Z,68.79
2019-03-13T09:53:59.785Z,68.47
2019-03-13T09:56:40.231Z,68.47
2019-03-13T09:59:42.338Z,69.08
2019-03-13T10:02:04.427Z,70.45
2019-03-13T10:04:53.570Z,70.45
2019-03-13T10:07:31.619Z,71.89
2019-03-13T10:10:16.969Z,70.90
2019-03-13T10:12:56.951Z,69.72
2019-03-13T10:15:38.923Z,69.72
2019-03-13T10:18:17.366Z,69.66
2019-03-13T10:20:58.311Z,68.77
2019-03-13T10:23:57.015Z,68.73
2019-03-13T10:26:39.114Z,68.65
2019-03-13T10:29:13.960Z,69.42
2019-03-13T10:31:59.315Z,69.41
2019-03-13T10:34:48.797Z,68.88
2019-03-13T10:37:53.147Z,68.47
2019-03-13T10:40:57.657Z,68.72
2019-03-13T10:43:46.930Z,68.40
2019-03-13T10:46:23.796Z,67.01
2019-03-13T10:48:56.991Z,66.74
2019-03-13T10:51:42.197Z,66.76
2019-03-13T10:54:40.300Z,67.60
2019-03-13T10:57:16.802Z,67.81
2019-03-13T11:00:01.750Z,67.17
2019-03-13T11:02:44.481Z,67.41
2019-03-13T11:05:27.493Z,67.41
2019-03-13T11:08:30.993Z,65.65
2019-03-13T11:11:29.324Z,65.04
2019-03-13T11:14:18.544Z,63.40
2019-03-13T11:17:10.996Z,63.32
2019-03-13T11:19:47.152Z,64.12
2019-03-13T11:22:33.364Z,62.96
2019-03-13T11:25:06.359Z,62.91
2019-03-13T11:27:59.410Z,63.80
2019-03-13T11:30:48.841Z,63.12
2019-03-13T11:33:38.438Z,62.25
2019-03-13T11:36:14.501Z,60.87
2019-03-13T11:39:01.643Z,60.90
2019-03-13T11:41:49.582Z,60.68
2019-03-13T11:44:40.668Z,59.58
2019-03-13T11:47:16.528Z,59.49
2019-03-13T11:50:01.121Z,58.20
2019-03-13T11:52:52.508Z,58.28
2019-03-13T11:55:25.127Z,58.15
2019-03-13T11:58:09.983Z,56.98
2019-03-13T12:00:54.932Z,57.20
2019-03-13T12:03:37.924Z,56.10
2019-03-13T12:06:31.701Z,55.94
2019-03-13T12:09:16.947Z,56.47
2019-03-13T12:11:52.643Z,56.25
2019-03-13T12:14:38.990Z,55.29
2019-03-13T12:17:23.812Z,55.59
2019-03-13T12:20:11.103Z,56.24
2019-03-13T12:22:56.002Z,58.33
2019-03-13T12:25:33.278Z,58.05
2019-03-13T12:28:34.742Z,58.22
2019-03-13T12:31:32.963Z,57.29
2019-03-13T12:34:20.539Z,59.38
2019-03-13T12:37:16.118Z,62.81
2019-03-13T12:40:14.272Z,64.63
2019-03-13T12:43:06.076Z,65.71
2019-03-13T12:46:02.374Z,66.01
2019-03-13T12:49:02.498Z,66.67
2019-03-13T12:52:00.057Z,67.05
2019-03-13T12:54:51.059Z,65.43
2019-03-13T12:57:36.736Z,63.61
2019-03-13T13:00:14.249Z,62.59
2019-03-13T13:02:59.000Z,61.06
2019-03-13T13:05:51.752Z,60.08
2019-03-13T13:08:36.835Z,58.48
2019-03-13T13:11:29.656Z,59.27
2019-03-13T13:14:18.133Z,59.07
2019-03-13T13:17:13.450Z,59.12
2019-03-13T13:19:40.879Z,60.20
2019-03-13T13:22:07.614Z,61.35
2019-03-13T13:24:34.514Z,63.60
2019-03-13T13:27:01.363Z,62.37
2019-03-13T13:29:31.043Z,63.69
2019-03-13T13:31:59.042Z,63.82
2019-03-13T13:34:25.861Z,63.62
2019-03-13T13:36:52.617Z,64.17
2019-03-13T13:39:19.576Z,63.90
2019-03-13T13:41:46.384Z,63.36
2019-03-13T13:44:13.124Z,62.80
2019-03-13T13:46:40.385Z,62.77
2019-03-13T13:49:07.236Z,62.50
2019-03-13T13:51:34.357Z,62.65
2019-03-13T13:54:02.993Z,62.78
2019-03-13T13:56:29.830Z,62.81
2019-03-13T13:58:56.556Z,63.33
2019-03-13T14:01:23.264Z,63.34
2019-03-13T14:03:50.003Z,63.90
2019-03-13T14:06:16.823Z,65.18
2019-03-13T14:08:43.540Z,65.20
2019-03-13T14:11:10.301Z,65.73
2019-03-13T14:13:37.009Z,65.94
2019-03-13T14:16:03.751Z,66.20
2019-03-13T14:18:30.455Z,65.89
2019-03-13T14:20:57.842Z,66.13
2019-03-13T14:23:24.557Z,66.66
2019-03-13T14:25:53.643Z,68.20
2019-03-13T14:28:20.716Z,68.55
2019-03-13T14:30:48.109Z,68.74
2019-03-13T14:33:17.335Z,68.62
2019-03-13T14:35:46.389Z,68.39
2019-03-13T14:38:13.189Z,67.65
2019-03-13T14:40:40.001Z,67.38
2019-03-13T14:43:06.777Z,67.38
2019-03-13T14:45:33.697Z,67.33
2019-03-13T14:48:05.729Z,67.26
2019-03-13T14:50:32.490Z,67.18
2019-03-13T14:53:00.606Z,67.75
2019-03-13T14:55:27.405Z,67.86
2019-03-13T14:57:54.253Z,69.18
2019-03-13T15:00:20.954Z,70.06
2019-03-13T15:02:49.128Z,72.23
2019-03-13T15:05:20.862Z,72.91
2019-03-13T15:07:49.681Z,71.95
2019-03-13T15:10:16.394Z,72.18
2019-03-13T15:12:43.330Z,71.65
2019-03-13T15:15:10.756Z,72.49
2019-03-13T15:17:37.496Z,72.49
2019-03-13T15:20:06.732Z,72.32
2019-03-13T15:22:33.441Z,71.72
2019-03-13T15:25:00.612Z,72.17
2019-03-13T15:27:29.604Z,71.41
2019-03-13T15:29:58.980Z,71.17
2019-03-13T15:32:26.245Z,71.17
2019-03-13T15:34:53.315Z,70.41
2019-03-13T15:37:22.181Z,69.88
2019-03-13T15:39:48.977Z,70.59
2019-03-13T15:42:15.814Z,69.61
2019-03-13T15:44:42.589Z,69.05
2019-03-13T15:47:09.739Z,68.03
2019-03-13T15:49:36.505Z,69.51
2019-03-13T15:52:03.328Z,69.51
2019-03-13T15:54:30.029Z,69.14
2019-03-13T15:56:56.786Z,68.28
2019-03-13T15:59:23.799Z,68.14
2019-03-13T16:01:53.152Z,68.64
2019-03-13T16:04:22.417Z,69.06
2019-03-13T16:06:50.841Z,68.58
2019-03-13T16:09:18.531Z,69.75
2019-03-13T16:11:48.183Z,69.69
2019-03-13T16:14:15.075Z,70.02
2019-03-13T16:16:41.906Z,70.38
2019-03-13T16:19:08.803Z,72.12
2019-03-13T16:21:36.296Z,72.43
2019-03-13T16:24:22.638Z,72.92
2019-03-13T16:26:49.621Z,72.62
2019-03-13T16:29:18.078Z,72.68
2019-03-13T16:31:44.811Z,72.87
2019-03-13T16:34:11.963Z,72.96
2019-03-13T16:36:38.701Z,74.23
2019-03-13T16:39:05.885Z,75.02
2019-03-13T16:41:33.222Z,75.95
2019-03-13T16:43:59.968Z,77.01
2019-03-13T16:46:26.690Z,76.30
2019-03-13T16:48:53.752Z,76.48
2019-03-13T16:51:20.517Z,77.01
2019-03-13T16:53:47.238Z,77.46
2019-03-13T16:56:13.952Z,77.28
2019-03-13T16:58:40.873Z,77.18
2019-03-13T17:01:07.677Z,77.06
2019-03-13T17:03:34.486Z,77.49
2019-03-13T17:06:02.159Z,77.56
2019-03-13T17:08:29.035Z,77.25
2019-03-13T17:10:58.201Z,76.70
2019-03-13T17:13:25.487Z,76.84
2019-03-13T17:15:54.257Z,76.20
2019-03-13T17:18:28.956Z,76.61
2019-03-13T17:20:55.781Z,76.10
2019-03-13T17:23:22.792Z,75.00
2019-03-13T17:25:49.540Z,75.00
2019-03-13T17:28:16.337Z,75.32
2019-03-13T17:30:43.508Z,75.53
2019-03-13T17:33:10.255Z,75.21
2019-03-13T17:35:37.007Z,74.91
2019-03-13T17:38:03.837Z,75.25
2019-03-13T17:40:30.577Z,75.90
2019-03-13T17:42:57.719Z,75.64
2019-03-13T17:45:32.021Z,75.64
2019-03-13T17:48:00.281Z,74.99
2019-03-13T17:50:27.147Z,75.35
2019-03-13T17:52:53.961Z,75.35
2019-03-13T17:55:20.695Z,75.75
2019-03-13T17:57:47.446Z,76.15
2019-03-13T18:00:23.215Z,76.19
2019-03-13T18:02:50.340Z,75.84
2019-03-13T18:05:17.293Z,75.62
2019-03-13T18:07:44.175Z,76.66
2019-03-13T18:10:13.608Z,76.30
2019-03-13T18:12:40.473Z,75.72
2019-03-13T18:15:07.313Z,75.72
2019-03-13T18:17:34.151Z,76.35
2019-03-13T18:20:00.915Z,76.29
2019-03-13T18:22:27.635Z,76.44
2019-03-13T18:24:54.529Z,76.51
2019-03-13T18:27:21.275Z,76.51
2019-03-13T18:29:52.193Z,76.97
2019-03-13T18:32:20.655Z,76.99
2019-03-13T18:34:49.154Z,77.04
2019-03-13T18:37:15.956Z,77.04
2019-03-13T18:39:42.716Z,77.00
2019-03-13T18:42:09.435Z,77.23
2019-03-13T18:44:38.006Z,77.14
2019-03-13T18:47:05.488Z,77.21
2019-03-13T18:49:32.237Z,77.38
2019-03-13T18:51:58.965Z,77.53
2019-03-13T18:54:25.911Z,78.13
2019-03-13T18:56:52.646Z,79.21
2019-03-13T18:59:19.806Z,78.74
2019-03-13T19:01:46.548Z,78.92
2019-03-13T19:04:13.276Z,80.25
2019-03-13T19:06:40.358Z,80.09
2019-03-13T19:09:07.068Z,80.17
2019-03-13T19:11:33.834Z,80.37
2019-03-13T19:14:02.996Z,80.55
2019-03-13T19:16:29.725Z,80.89
2019-03-13T19:18:56.666Z,80.89
2019-03-13T19:21:23.409Z,81.04
2019-03-13T19:23:50.202Z,82.38
2019-03-13T19:26:16.951Z,82.82
2019-03-13T19:28:43.666Z,82.82
2019-03-13T19:31:10.525Z,82.99
2019-03-13T19:33:37.247Z,83.12
2019-03-13T19:36:04.020Z,84.54
2019-03-13T19:38:30.818Z,84.54
2019-03-13T19:40:57.652Z,87.72
2019-03-13T19:43:24.357Z,87.72
2019-03-13T19:45:51.095Z,88.65
2019-03-13T19:48:17.813Z,88.91
2019-03-13T19:50:44.591Z,88.91
2019-03-13T19:53:11.398Z,89.51
2019-03-13T19:55:38.215Z,90.11
2019-03-13T19:58:05.042Z,90.11
2019-03-13T20:00:31.721Z,89.86
2019-03-13T20:03:00.598Z,90.62
2019-03-13T20:05:27.708Z,92.09
2019-03-13T20:07:54.573Z,92.09
2019-03-13T20:10:22.400Z,91.13
2019-03-13T20:12:49.075Z,91.13
2019-03-13T20:15:17.117Z,92.50
2019-03-13T20:17:43.863Z,92.13
2019-03-13T20:20:13.054Z,92.13
2019-03-13T20:22:39.865Z,93.08
2019-03-13T20:25:08.459Z,93.08
2019-03-13T20:27:35.254Z,93.14
2019-03-13T20:30:01.997Z,92.68
2019-03-13T20:32:29.112Z,92.49
2019-03-13T20:34:56.220Z,92.08
2019-03-13T20:37:23.005Z,92.08
2019-03-13T20:39:51.504Z,92.39
2019-03-13T20:42:18.240Z,91.93
2019-03-13T20:44:45.072Z,92.11
2019-03-13T20:47:11.910Z,92.27
2019-03-13T20:49:38.670Z,92.33
2019-03-13T20:52:05.387Z,92.87
2019-03-13T20:54:32.086Z,92.87
2019-03-13T20:56:59.115Z,92.97
2019-03-13T20:59:26.284Z,92.53
2019-03-13T21:01:53.093Z,92.68
2019-03-13T21:04:19.940Z,91.28
2019-03-13T21:06:47.092Z,90.00
2019-03-13T21:09:13.825Z,90.67
2019-03-13T21:11:40.572Z,89.76
2019-03-13T21:14:07.320Z,90.06
2019-03-13T21:16:34.107Z,90.06
2019-03-13T21:19:00.854Z,89.89
2019-03-13T21:21:27.549Z,89.38
2019-03-13T21:23:54.374Z,89.38
2019-03-13T21:26:21.206Z,90.72
2019-03-13T21:28:47.906Z,90.14
2019-03-13T21:31:16.890Z,91.36
2019-03-13T21:33:44.608Z,91.83
2019-03-13T21:36:11.440Z,91.83
2019-03-13T21:38:41.372Z,91.54
2019-03-13T21:41:08.202Z,92.81
2019-03-13T21:43:36.001Z,92.81
2019-03-13T21:46:02.869Z,93.20
2019-03-13T21:48:31.315Z,93.20
2019-03-13T21:50:58.196Z,92.44
2019-03-13T21:53:25.404Z,91.93
2019-03-13T21:55:52.201Z,92.47
2019-03-13T21:58:18.892Z,92.47
2019-03-13T22:00:45.745Z,92.79
2019-03-13T22:03:12.458Z,92.20
2019-03-13T22:05:39.635Z,92.74
2019-03-13T22:08:09.588Z,92.37
2019-03-13T22:10:36.812Z,92.37
2019-03-13T22:13:03.887Z,92.61
2019-03-13T22:15:30.723Z,91.50
2019-03-13T22:17:57.428Z,91.50
2019-03-13T22:20:26.604Z,91.70
2019-03-13T22:22:53.327Z,92.03
2019-03-13T22:25:20.052Z,92.03
2019-03-13T22:27:46.796Z,92.20
2019-03-13T22:30:15.699Z,91.63
2019-03-13T22:32:45.890Z,92.50
2019-03-13T22:35:12.616Z,92.50
2019-03-13T22:37:39.391Z,92.36
2019-03-13T22:40:07.915Z,92.90
2019-03-13T22:42:34.694Z,92.10
2019-03-13T22:45:01.378Z,92.78
2019-03-13T22:47:28.111Z,92.78
2019-03-13T22:49:54.838Z,90.90
2019-03-13T22:52:21.554Z,90.90
2019-03-13T22:54:48.299Z,92.38
2019-03-13T22:57:15.070Z,93.09
2019-03-13T22:59:45.189Z,91.67
2019-03-13T23:02:12.033Z,92.69
2019-03-13T23:04:38.837Z,92.69
2019-03-13T23:07:05.565Z,92.87
2019-03-13T23:09:32.287Z,92.44
2019-03-13T23:11:59.064Z,92.44
2019-03-13T23:14:25.860Z,93.01
2019-03-13T23:16:52.594Z,93.01
2019-03-13T23:19:19.338Z,93.53
2019-03-13T23:21:46.426Z,93.89
2019-03-13T23:24:14.378Z,92.93
2019-03-13T23:26:41.210Z,92.93
2019-03-13T23:29:07.969Z,92.93
2019-03-13T23:31:34.825Z,92.93
2019-03-13T23:34:01.522Z,92.29
2019-03-13T23:36:28.254Z,92.29
2019-03-13T23:38:54.992Z,92.48
2019-03-13T23:41:21.781Z,91.03
2019-03-13T23:43:48.476Z,91.03
2019-03-13T23:46:15.215Z,92.59
2019-03-13T23:48:42.036Z,92.59
2019-03-13T23:51:08.739Z,91.04
2019-03-13T23:53:35.758Z,92.05
2019-03-13T23:56:02.472Z,92.48
2019-03-13T23:58:29.188Z,91.62
